sensor_id;sensor_type;location;lat;lon;timestamp;P1;durP1;ratioP1;P2;durP2;ratioP2
18574;SDS011;9417;16.484;102.872;2023-07-29T00:01:34;10.93;;;9.82;;
18574;SDS011;9417;16.484;102.872;2023-07-29T00:03:44;8.40;;;5.38;;
18574;SDS011;9417;16.484;102.872;2023-07-29T00:05:49;13.55;;;12.35;;
18574;SDS011;9417;16.484;102.872;2023-07-29T00:07:57;7.78;;;4.75;;
18574;SDS011;9417;16.484;102.872;2023-07-29T00:10:05;7.97;;;4.97;;
18574;SDS011;9417;16.484;102.872;2023-07-29T00:12:13;6.60;;;4.28;;
18574;SDS011;9417;16.484;102.872;2023-07-29T00:14:21;7.88;;;4.72;;
18574;SDS011;9417;16.484;102.872;2023-07-29T00:16:28;10.00;;;4.75;;
18574;SDS011;9417;16.484;102.872;2023-07-29T00:18:36;7.93;;;4.20;;
18574;SDS011;9417;16.484;102.872;2023-07-29T00:20:43;7.38;;;4.32;;
18574;SDS011;9417;16.484;102.872;2023-07-29T00:22:51;7.82;;;4.15;;
18574;SDS011;9417;16.484;102.872;2023-07-29T00:24:58;8.20;;;4.18;;
18574;SDS011;9417;16.484;102.872;2023-07-29T00:27:07;7.30;;;4.53;;
18574;SDS011;9417;16.484;102.872;2023-07-29T00:29:13;7.95;;;4.63;;
18574;SDS011;9417;16.484;102.872;2023-07-29T00:31:21;7.53;;;3.92;;
18574;SDS011;9417;16.484;102.872;2023-07-29T00:33:28;8.25;;;4.72;;
18574;SDS011;9417;16.484;102.872;2023-07-29T00:35:35;6.82;;;3.88;;
18574;SDS011;9417;16.484;102.872;2023-07-29T00:37:43;8.30;;;4.70;;
18574;SDS011;9417;16.484;102.872;2023-07-29T00:39:50;5.85;;;4.15;;
18574;SDS011;9417;16.484;102.872;2023-07-29T00:41:57;7.65;;;4.20;;
18574;SDS011;9417;16.484;102.872;2023-07-29T00:44:07;5.75;;;4.15;;
18574;SDS011;9417;16.484;102.872;2023-07-29T00:46:14;6.40;;;3.90;;
18574;SDS011;9417;16.484;102.872;2023-07-29T00:48:23;7.63;;;5.03;;
18574;SDS011;9417;16.484;102.872;2023-07-29T00:50:31;7.85;;;4.00;;
18574;SDS011;9417;16.484;102.872;2023-07-29T00:52:39;7.10;;;4.40;;
18574;SDS011;9417;16.484;102.872;2023-07-29T00:54:45;6.75;;;4.50;;
18574;SDS011;9417;16.484;102.872;2023-07-29T00:56:54;6.88;;;4.00;;
18574;SDS011;9417;16.484;102.872;2023-07-29T00:59:02;18.20;;;16.25;;
18574;SDS011;9417;16.484;102.872;2023-07-29T01:01:11;19.50;;;16.70;;
18574;SDS011;9417;16.484;102.872;2023-07-29T01:03:18;19.15;;;16.50;;
18574;SDS011;9417;16.484;102.872;2023-07-29T01:05:27;8.40;;;4.50;;
18574;SDS011;9417;16.484;102.872;2023-07-29T01:07:42;8.40;;;4.45;;
18574;SDS011;9417;16.484;102.872;2023-07-29T01:09:56;7.07;;;4.28;;
18574;SDS011;9417;16.484;102.872;2023-07-29T01:12:16;7.95;;;4.63;;
18574;SDS011;9417;16.484;102.872;2023-07-29T01:14:29;8.13;;;4.60;;
18574;SDS011;9417;16.484;102.872;2023-07-29T01:16:42;9.68;;;4.68;;
18574;SDS011;9417;16.484;102.872;2023-07-29T01:18:58;8.20;;;4.47;;
18574;SDS011;9417;16.484;102.872;2023-07-29T01:21:11;8.15;;;4.55;;
18574;SDS011;9417;16.484;102.872;2023-07-29T01:23:24;8.55;;;4.53;;
18574;SDS011;9417;16.484;102.872;2023-07-29T01:25:33;6.97;;;4.03;;
18574;SDS011;9417;16.484;102.872;2023-07-29T01:27:41;7.93;;;4.47;;
18574;SDS011;9417;16.484;102.872;2023-07-29T01:29:50;7.88;;;4.55;;
18574;SDS011;9417;16.484;102.872;2023-07-29T01:31:58;10.93;;;4.38;;
18574;SDS011;9417;16.484;102.872;2023-07-29T01:34:12;6.97;;;4.30;;
18574;SDS011;9417;16.484;102.872;2023-07-29T01:36:23;10.07;;;4.40;;
18574;SDS011;9417;16.484;102.872;2023-07-29T01:38:35;9.70;;;4.65;;
18574;SDS011;9417;16.484;102.872;2023-07-29T01:40:44;9.43;;;4.95;;
18574;SDS011;9417;16.484;102.872;2023-07-29T01:42:53;6.65;;;4.30;;
18574;SDS011;9417;16.484;102.872;2023-07-29T01:45:00;7.13;;;4.43;;
18574;SDS011;9417;16.484;102.872;2023-07-29T01:47:06;9.00;;;4.40;;
18574;SDS011;9417;16.484;102.872;2023-07-29T01:49:14;8.38;;;4.68;;
18574;SDS011;9417;16.484;102.872;2023-07-29T01:51:21;6.93;;;4.93;;
18574;SDS011;9417;16.484;102.872;2023-07-29T01:53:29;8.60;;;5.70;;
18574;SDS011;9417;16.484;102.872;2023-07-29T01:55:38;10.73;;;5.15;;
18574;SDS011;9417;16.484;102.872;2023-07-29T01:57:45;10.20;;;5.05;;
18574;SDS011;9417;16.484;102.872;2023-07-29T01:59:54;7.90;;;4.50;;
18574;SDS011;9417;16.484;102.872;2023-07-29T02:02:00;7.72;;;4.47;;
18574;SDS011;9417;16.484;102.872;2023-07-29T02:04:07;10.32;;;4.88;;
18574;SDS011;9417;16.484;102.872;2023-07-29T02:06:14;9.70;;;4.45;;
18574;SDS011;9417;16.484;102.872;2023-07-29T02:08:22;7.55;;;4.35;;
18574;SDS011;9417;16.484;102.872;2023-07-29T02:10:29;7.68;;;4.85;;
18574;SDS011;9417;16.484;102.872;2023-07-29T02:12:38;9.02;;;4.47;;
18574;SDS011;9417;16.484;102.872;2023-07-29T02:14:45;9.10;;;4.47;;
18574;SDS011;9417;16.484;102.872;2023-07-29T02:16:52;7.72;;;4.13;;
18574;SDS011;9417;16.484;102.872;2023-07-29T02:19:00;9.75;;;5.22;;
18574;SDS011;9417;16.484;102.872;2023-07-29T02:21:07;9.52;;;5.05;;
18574;SDS011;9417;16.484;102.872;2023-07-29T02:23:15;10.25;;;4.32;;
18574;SDS011;9417;16.484;102.872;2023-07-29T02:25:22;8.48;;;4.50;;
18574;SDS011;9417;16.484;102.872;2023-07-29T02:27:28;10.05;;;4.80;;
18574;SDS011;9417;16.484;102.872;2023-07-29T02:29:37;9.13;;;5.10;;
18574;SDS011;9417;16.484;102.872;2023-07-29T02:31:45;8.18;;;4.47;;
18574;SDS011;9417;16.484;102.872;2023-07-29T02:33:52;7.50;;;4.38;;
18574;SDS011;9417;16.484;102.872;2023-07-29T02:36:00;19.00;;;6.50;;
18574;SDS011;9417;16.484;102.872;2023-07-29T02:38:06;45.42;;;12.63;;
18574;SDS011;9417;16.484;102.872;2023-07-29T02:40:13;12.98;;;6.30;;
18574;SDS011;9417;16.484;102.872;2023-07-29T02:42:21;15.38;;;5.05;;
18574;SDS011;9417;16.484;102.872;2023-07-29T02:44:28;19.48;;;8.18;;
18574;SDS011;9417;16.484;102.872;2023-07-29T02:46:37;13.82;;;5.85;;
18574;SDS011;9417;16.484;102.872;2023-07-29T02:48:44;8.20;;;5.15;;
18574;SDS011;9417;16.484;102.872;2023-07-29T02:50:50;8.77;;;4.93;;
18574;SDS011;9417;16.484;102.872;2023-07-29T02:52:57;9.80;;;4.60;;
18574;SDS011;9417;16.484;102.872;2023-07-29T02:55:05;8.52;;;4.75;;
18574;SDS011;9417;16.484;102.872;2023-07-29T02:57:13;7.90;;;4.68;;
18574;SDS011;9417;16.484;102.872;2023-07-29T02:59:21;9.98;;;5.50;;
18574;SDS011;9417;16.484;102.872;2023-07-29T03:01:28;8.88;;;5.20;;
18574;SDS011;9417;16.484;102.872;2023-07-29T03:03:37;8.60;;;4.30;;
18574;SDS011;9417;16.484;102.872;2023-07-29T03:05:45;9.70;;;4.43;;
18574;SDS011;9417;16.484;102.872;2023-07-29T03:07:52;5.95;;;3.78;;
18574;SDS011;9417;16.484;102.872;2023-07-29T03:10:00;9.32;;;4.38;;
18574;SDS011;9417;16.484;102.872;2023-07-29T03:12:06;7.13;;;4.15;;
18574;SDS011;9417;16.484;102.872;2023-07-29T03:14:13;8.45;;;4.30;;
18574;SDS011;9417;16.484;102.872;2023-07-29T03:16:20;7.95;;;4.10;;
18574;SDS011;9417;16.484;102.872;2023-07-29T03:18:30;9.70;;;4.20;;
18574;SDS011;9417;16.484;102.872;2023-07-29T03:20:39;8.45;;;3.95;;
18574;SDS011;9417;16.484;102.872;2023-07-29T03:22:46;9.52;;;4.32;;
18574;SDS011;9417;16.484;102.872;2023-07-29T03:24:54;6.55;;;3.60;;
18574;SDS011;9417;16.484;102.872;2023-07-29T03:27:01;8.32;;;4.13;;
18574;SDS011;9417;16.484;102.872;2023-07-29T03:29:08;11.57;;;4.35;;
18574;SDS011;9417;16.484;102.872;2023-07-29T03:31:16;9.32;;;4.82;;
18574;SDS011;9417;16.484;102.872;2023-07-29T03:33:24;10.45;;;4.43;;
18574;SDS011;9417;16.484;102.872;2023-07-29T03:35:32;9.52;;;4.22;;
18574;SDS011;9417;16.484;102.872;2023-07-29T03:37:41;11.65;;;4.10;;
18574;SDS011;9417;16.484;102.872;2023-07-29T03:39:48;6.82;;;3.50;;
18574;SDS011;9417;16.484;102.872;2023-07-29T03:41:56;9.70;;;4.10;;
18574;SDS011;9417;16.484;102.872;2023-07-29T03:44:04;6.57;;;3.88;;
18574;SDS011;9417;16.484;102.872;2023-07-29T03:46:12;8.23;;;4.07;;
18574;SDS011;9417;16.484;102.872;2023-07-29T03:48:23;7.60;;;3.90;;
18574;SDS011;9417;16.484;102.872;2023-07-29T03:50:29;7.53;;;3.95;;
18574;SDS011;9417;16.484;102.872;2023-07-29T03:52:37;6.72;;;4.35;;
18574;SDS011;9417;16.484;102.872;2023-07-29T03:54:46;7.45;;;4.38;;
18574;SDS011;9417;16.484;102.872;2023-07-29T03:56:53;7.00;;;4.32;;
18574;SDS011;9417;16.484;102.872;2023-07-29T03:59:03;13.20;;;5.85;;
18574;SDS011;9417;16.484;102.872;2023-07-29T04:01:11;10.32;;;4.80;;
18574;SDS011;9417;16.484;102.872;2023-07-29T04:03:18;14.00;;;5.80;;
18574;SDS011;9417;16.484;102.872;2023-07-29T04:05:27;9.85;;;6.80;;
18574;SDS011;9417;16.484;102.872;2023-07-29T04:07:35;15.30;;;7.78;;
18574;SDS011;9417;16.484;102.872;2023-07-29T04:09:45;10.50;;;6.25;;
18574;SDS011;9417;16.484;102.872;2023-07-29T04:11:52;11.20;;;5.97;;
18574;SDS011;9417;16.484;102.872;2023-07-29T04:14:00;10.68;;;6.57;;
18574;SDS011;9417;16.484;102.872;2023-07-29T04:16:07;9.48;;;5.30;;
18574;SDS011;9417;16.484;102.872;2023-07-29T04:18:15;10.65;;;6.50;;
18574;SDS011;9417;16.484;102.872;2023-07-29T04:20:23;7.65;;;4.40;;
18574;SDS011;9417;16.484;102.872;2023-07-29T04:22:30;8.32;;;5.07;;
18574;SDS011;9417;16.484;102.872;2023-07-29T04:24:38;12.63;;;6.18;;
18574;SDS011;9417;16.484;102.872;2023-07-29T04:26:47;10.55;;;5.25;;
18574;SDS011;9417;16.484;102.872;2023-07-29T04:28:54;8.90;;;6.00;;
18574;SDS011;9417;16.484;102.872;2023-07-29T04:31:02;6.10;;;4.68;;
18574;SDS011;9417;16.484;102.872;2023-07-29T04:33:10;10.57;;;5.07;;
18574;SDS011;9417;16.484;102.872;2023-07-29T04:35:16;10.85;;;4.72;;
18574;SDS011;9417;16.484;102.872;2023-07-29T04:37:23;8.82;;;4.20;;
18574;SDS011;9417;16.484;102.872;2023-07-29T04:39:31;7.68;;;4.75;;
18574;SDS011;9417;16.484;102.872;2023-07-29T04:41:38;7.15;;;4.97;;
18574;SDS011;9417;16.484;102.872;2023-07-29T04:43:48;10.70;;;4.90;;
18574;SDS011;9417;16.484;102.872;2023-07-29T04:45:56;12.82;;;5.45;;
18574;SDS011;9417;16.484;102.872;2023-07-29T04:48:03;8.40;;;4.45;;
18574;SDS011;9417;16.484;102.872;2023-07-29T04:50:11;9.60;;;4.55;;
18574;SDS011;9417;16.484;102.872;2023-07-29T04:52:19;9.13;;;4.63;;
18574;SDS011;9417;16.484;102.872;2023-07-29T04:54:26;8.85;;;4.50;;
18574;SDS011;9417;16.484;102.872;2023-07-29T04:56:33;9.00;;;4.38;;
18574;SDS011;9417;16.484;102.872;2023-07-29T04:58:43;10.07;;;4.45;;
18574;SDS011;9417;16.484;102.872;2023-07-29T05:00:50;9.48;;;4.45;;
18574;SDS011;9417;16.484;102.872;2023-07-29T05:02:58;8.00;;;4.40;;
18574;SDS011;9417;16.484;102.872;2023-07-29T05:05:06;9.48;;;6.00;;
18574;SDS011;9417;16.484;102.872;2023-07-29T05:07:13;7.90;;;4.68;;
18574;SDS011;9417;16.484;102.872;2023-07-29T05:09:21;8.27;;;5.10;;
18574;SDS011;9417;16.484;102.872;2023-07-29T05:11:30;12.18;;;5.25;;
18574;SDS011;9417;16.484;102.872;2023-07-29T05:13:38;7.07;;;4.80;;
18574;SDS011;9417;16.484;102.872;2023-07-29T05:15:48;7.10;;;5.00;;
18574;SDS011;9417;16.484;102.872;2023-07-29T05:17:57;10.05;;;4.30;;
18574;SDS011;9417;16.484;102.872;2023-07-29T05:20:05;12.27;;;4.72;;
18574;SDS011;9417;16.484;102.872;2023-07-29T05:22:13;8.30;;;4.32;;
18574;SDS011;9417;16.484;102.872;2023-07-29T05:24:21;8.82;;;4.93;;
18574;SDS011;9417;16.484;102.872;2023-07-29T05:26:28;9.90;;;4.50;;
18574;SDS011;9417;16.484;102.872;2023-07-29T05:28:37;10.75;;;4.25;;
18574;SDS011;9417;16.484;102.872;2023-07-29T05:30:44;9.45;;;4.20;;
18574;SDS011;9417;16.484;102.872;2023-07-29T05:32:53;9.30;;;3.90;;
18574;SDS011;9417;16.484;102.872;2023-07-29T05:35:01;4.80;;;3.45;;
18574;SDS011;9417;16.484;102.872;2023-07-29T05:37:11;3.80;;;2.97;;
18574;SDS011;9417;16.484;102.872;2023-07-29T05:39:19;5.28;;;3.28;;
18574;SDS011;9417;16.484;102.872;2023-07-29T05:41:27;5.70;;;3.30;;
18574;SDS011;9417;16.484;102.872;2023-07-29T05:43:36;6.80;;;3.20;;
18574;SDS011;9417;16.484;102.872;2023-07-29T05:45:43;8.35;;;3.78;;
18574;SDS011;9417;16.484;102.872;2023-07-29T05:47:53;7.22;;;3.55;;
18574;SDS011;9417;16.484;102.872;2023-07-29T05:50:00;7.10;;;3.88;;
18574;SDS011;9417;16.484;102.872;2023-07-29T05:52:09;7.90;;;3.95;;
18574;SDS011;9417;16.484;102.872;2023-07-29T05:54:17;8.38;;;3.92;;
18574;SDS011;9417;16.484;102.872;2023-07-29T05:56:25;6.03;;;3.70;;
18574;SDS011;9417;16.484;102.872;2023-07-29T05:58:31;6.60;;;3.80;;
18574;SDS011;9417;16.484;102.872;2023-07-29T06:00:38;7.60;;;3.83;;
18574;SDS011;9417;16.484;102.872;2023-07-29T06:02:46;7.22;;;4.07;;
18574;SDS011;9417;16.484;102.872;2023-07-29T06:04:58;7.70;;;4.40;;
18574;SDS011;9417;16.484;102.872;2023-07-29T06:07:07;7.20;;;4.38;;
18574;SDS011;9417;16.484;102.872;2023-07-29T06:09:14;7.22;;;3.63;;
18574;SDS011;9417;16.484;102.872;2023-07-29T06:11:20;5.43;;;3.20;;
18574;SDS011;9417;16.484;102.872;2023-07-29T06:13:28;7.13;;;4.00;;
18574;SDS011;9417;16.484;102.872;2023-07-29T06:15:35;8.50;;;4.15;;
18574;SDS011;9417;16.484;102.872;2023-07-29T06:17:43;7.88;;;3.72;;
18574;SDS011;9417;16.484;102.872;2023-07-29T06:19:49;10.18;;;4.28;;
18574;SDS011;9417;16.484;102.872;2023-07-29T06:21:58;9.02;;;4.50;;
18574;SDS011;9417;16.484;102.872;2023-07-29T06:24:06;11.98;;;6.88;;
18574;SDS011;9417;16.484;102.872;2023-07-29T06:26:13;8.40;;;6.15;;
18574;SDS011;9417;16.484;102.872;2023-07-29T06:28:21;10.27;;;5.45;;
18574;SDS011;9417;16.484;102.872;2023-07-29T06:30:28;11.77;;;5.72;;
18574;SDS011;9417;16.484;102.872;2023-07-29T06:32:36;11.25;;;5.72;;
18574;SDS011;9417;16.484;102.872;2023-07-29T06:34:43;8.35;;;5.63;;
18574;SDS011;9417;16.484;102.872;2023-07-29T06:36:51;7.72;;;5.38;;
18574;SDS011;9417;16.484;102.872;2023-07-29T06:39:00;8.23;;;5.28;;
18574;SDS011;9417;16.484;102.872;2023-07-29T06:41:07;9.95;;;5.78;;
18574;SDS011;9417;16.484;102.872;2023-07-29T06:43:17;10.18;;;5.97;;
18574;SDS011;9417;16.484;102.872;2023-07-29T06:45:25;8.57;;;5.95;;
18574;SDS011;9417;16.484;102.872;2023-07-29T06:47:31;7.95;;;5.60;;
18574;SDS011;9417;16.484;102.872;2023-07-29T06:49:38;9.48;;;6.07;;
18574;SDS011;9417;16.484;102.872;2023-07-29T06:51:46;7.80;;;5.07;;
18574;SDS011;9417;16.484;102.872;2023-07-29T06:53:53;13.60;;;8.18;;
18574;SDS011;9417;16.484;102.872;2023-07-29T06:56:02;16.52;;;9.80;;
18574;SDS011;9417;16.484;102.872;2023-07-29T06:58:10;16.65;;;11.68;;
18574;SDS011;9417;16.484;102.872;2023-07-29T07:00:18;12.68;;;7.18;;
18574;SDS011;9417;16.484;102.872;2023-07-29T07:02:25;10.38;;;6.05;;
18574;SDS011;9417;16.484;102.872;2023-07-29T07:04:32;12.00;;;5.97;;
18574;SDS011;9417;16.484;102.872;2023-07-29T07:06:39;8.32;;;5.05;;
18574;SDS011;9417;16.484;102.872;2023-07-29T07:08:47;7.75;;;4.60;;
18574;SDS011;9417;16.484;102.872;2023-07-29T07:10:54;7.15;;;4.03;;
18574;SDS011;9417;16.484;102.872;2023-07-29T07:13:03;9.07;;;4.07;;
18574;SDS011;9417;16.484;102.872;2023-07-29T07:15:11;8.73;;;4.20;;
18574;SDS011;9417;16.484;102.872;2023-07-29T07:17:18;7.97;;;4.80;;
18574;SDS011;9417;16.484;102.872;2023-07-29T07:19:25;10.27;;;5.30;;
18574;SDS011;9417;16.484;102.872;2023-07-29T07:21:33;11.63;;;5.68;;
18574;SDS011;9417;16.484;102.872;2023-07-29T07:23:40;7.70;;;5.75;;
18574;SDS011;9417;16.484;102.872;2023-07-29T07:25:47;10.98;;;6.50;;
18574;SDS011;9417;16.484;102.872;2023-07-29T07:27:54;10.10;;;6.35;;
18574;SDS011;9417;16.484;102.872;2023-07-29T07:30:04;12.75;;;10.85;;
18574;SDS011;9417;16.484;102.872;2023-07-29T07:32:12;13.93;;;11.93;;
18574;SDS011;9417;16.484;102.872;2023-07-29T07:34:19;12.65;;;6.63;;
18574;SDS011;9417;16.484;102.872;2023-07-29T07:36:27;12.15;;;6.10;;
18574;SDS011;9417;16.484;102.872;2023-07-29T07:38:34;19.92;;;16.08;;
18574;SDS011;9417;16.484;102.872;2023-07-29T07:40:42;11.65;;;6.68;;
18574;SDS011;9417;16.484;102.872;2023-07-29T07:42:58;10.32;;;5.63;;
18574;SDS011;9417;16.484;102.872;2023-07-29T07:45:08;9.63;;;4.78;;
18574;SDS011;9417;16.484;102.872;2023-07-29T07:47:15;11.10;;;5.30;;
18574;SDS011;9417;16.484;102.872;2023-07-29T07:49:21;8.82;;;4.82;;
18574;SDS011;9417;16.484;102.872;2023-07-29T07:51:28;8.48;;;5.05;;
18574;SDS011;9417;16.484;102.872;2023-07-29T07:53:36;13.32;;;5.82;;
18574;SDS011;9417;16.484;102.872;2023-07-29T07:55:43;7.28;;;5.13;;
18574;SDS011;9417;16.484;102.872;2023-07-29T07:57:51;10.20;;;5.13;;
18574;SDS011;9417;16.484;102.872;2023-07-29T07:59:58;8.65;;;5.22;;
18574;SDS011;9417;16.484;102.872;2023-07-29T08:02:16;8.57;;;6.00;;
18574;SDS011;9417;16.484;102.872;2023-07-29T08:04:24;9.40;;;6.18;;
18574;SDS011;9417;16.484;102.872;2023-07-29T08:06:31;10.32;;;6.25;;
18574;SDS011;9417;16.484;102.872;2023-07-29T08:08:39;8.25;;;5.55;;
18574;SDS011;9417;16.484;102.872;2023-07-29T08:10:46;10.35;;;5.90;;
18574;SDS011;9417;16.484;102.872;2023-07-29T08:12:54;10.25;;;6.13;;
18574;SDS011;9417;16.484;102.872;2023-07-29T08:15:01;7.90;;;6.13;;
18574;SDS011;9417;16.484;102.872;2023-07-29T08:17:09;11.45;;;6.55;;
18574;SDS011;9417;16.484;102.872;2023-07-29T08:19:16;8.82;;;5.30;;
18574;SDS011;9417;16.484;102.872;2023-07-29T08:21:24;11.73;;;5.20;;
18574;SDS011;9417;16.484;102.872;2023-07-29T08:23:34;9.52;;;5.05;;
18574;SDS011;9417;16.484;102.872;2023-07-29T08:25:42;8.80;;;4.72;;
18574;SDS011;9417;16.484;102.872;2023-07-29T08:27:49;8.43;;;5.50;;
18574;SDS011;9417;16.484;102.872;2023-07-29T08:29:57;9.02;;;5.40;;
18574;SDS011;9417;16.484;102.872;2023-07-29T08:32:04;9.18;;;4.57;;
18574;SDS011;9417;16.484;102.872;2023-07-29T08:34:12;7.35;;;4.70;;
18574;SDS011;9417;16.484;102.872;2023-07-29T08:36:21;10.65;;;4.97;;
18574;SDS011;9417;16.484;102.872;2023-07-29T08:38:28;6.82;;;4.47;;
18574;SDS011;9417;16.484;102.872;2023-07-29T08:40:37;10.30;;;4.28;;
18574;SDS011;9417;16.484;102.872;2023-07-29T08:42:48;9.07;;;4.43;;
18574;SDS011;9417;16.484;102.872;2023-07-29T08:44:55;7.57;;;4.43;;
18574;SDS011;9417;16.484;102.872;2023-07-29T08:47:04;8.35;;;5.20;;
18574;SDS011;9417;16.484;102.872;2023-07-29T08:49:12;7.45;;;4.40;;
18574;SDS011;9417;16.484;102.872;2023-07-29T08:51:24;7.78;;;4.40;;
18574;SDS011;9417;16.484;102.872;2023-07-29T08:53:32;10.23;;;4.65;;
18574;SDS011;9417;16.484;102.872;2023-07-29T08:55:40;10.13;;;6.25;;
18574;SDS011;9417;16.484;102.872;2023-07-29T08:57:47;27.60;;;16.67;;
18574;SDS011;9417;16.484;102.872;2023-07-29T08:59:55;12.60;;;6.10;;
18574;SDS011;9417;16.484;102.872;2023-07-29T09:02:04;29.45;;;16.02;;
18574;SDS011;9417;16.484;102.872;2023-07-29T09:04:12;10.45;;;5.47;;
18574;SDS011;9417;16.484;102.872;2023-07-29T09:06:19;9.93;;;5.72;;
18574;SDS011;9417;16.484;102.872;2023-07-29T09:08:29;13.73;;;9.75;;
18574;SDS011;9417;16.484;102.872;2023-07-29T09:10:37;19.58;;;17.45;;
18574;SDS011;9417;16.484;102.872;2023-07-29T09:12:43;16.98;;;14.13;;
18574;SDS011;9417;16.484;102.872;2023-07-29T09:14:51;9.20;;;6.90;;
18574;SDS011;9417;16.484;102.872;2023-07-29T09:16:59;14.32;;;9.68;;
18574;SDS011;9417;16.484;102.872;2023-07-29T09:19:07;34.50;;;23.27;;
18574;SDS011;9417;16.484;102.872;2023-07-29T09:21:15;11.10;;;8.68;;
18574;SDS011;9417;16.484;102.872;2023-07-29T09:23:32;16.27;;;12.80;;
18574;SDS011;9417;16.484;102.872;2023-07-29T09:25:46;12.70;;;8.88;;
18574;SDS011;9417;16.484;102.872;2023-07-29T09:27:53;36.67;;;21.55;;
18574;SDS011;9417;16.484;102.872;2023-07-29T09:30:06;20.67;;;13.95;;
18574;SDS011;9417;16.484;102.872;2023-07-29T09:32:21;7.88;;;6.13;;
18574;SDS011;9417;16.484;102.872;2023-07-29T09:34:30;5.55;;;3.78;;
18574;SDS011;9417;16.484;102.872;2023-07-29T09:36:37;12.00;;;7.43;;
18574;SDS011;9417;16.484;102.872;2023-07-29T09:38:46;10.27;;;6.13;;
18574;SDS011;9417;16.484;102.872;2023-07-29T09:40:54;6.50;;;3.45;;
18574;SDS011;9417;16.484;102.872;2023-07-29T09:43:03;15.93;;;10.13;;
18574;SDS011;9417;16.484;102.872;2023-07-29T09:45:10;16.55;;;10.65;;
18574;SDS011;9417;16.484;102.872;2023-07-29T09:47:22;13.20;;;7.32;;
18574;SDS011;9417;16.484;102.872;2023-07-29T09:49:30;5.93;;;3.42;;
18574;SDS011;9417;16.484;102.872;2023-07-29T09:53:50;16.30;;;10.55;;
18574;SDS011;9417;16.484;102.872;2023-07-29T09:55:57;12.40;;;7.25;;
18574;SDS011;9417;16.484;102.872;2023-07-29T09:58:05;13.57;;;8.38;;
18574;SDS011;9417;16.484;102.872;2023-07-29T10:00:13;10.40;;;6.25;;
18574;SDS011;9417;16.484;102.872;2023-07-29T10:02:20;6.97;;;3.92;;
18574;SDS011;9417;16.484;102.872;2023-07-29T10:04:29;6.18;;;4.05;;
18574;SDS011;9417;16.484;102.872;2023-07-29T10:06:37;7.70;;;3.63;;
18574;SDS011;9417;16.484;102.872;2023-07-29T10:08:46;5.30;;;3.72;;
18574;SDS011;9417;16.484;102.872;2023-07-29T10:10:58;10.63;;;6.13;;
18574;SDS011;9417;16.484;102.872;2023-07-29T10:13:06;8.65;;;4.70;;
18574;SDS011;9417;16.484;102.872;2023-07-29T10:15:14;6.97;;;4.13;;
18574;SDS011;9417;16.484;102.872;2023-07-29T10:17:22;8.13;;;3.90;;
18574;SDS011;9417;16.484;102.872;2023-07-29T10:19:31;7.68;;;4.72;;
18574;SDS011;9417;16.484;102.872;2023-07-29T10:21:40;8.32;;;3.92;;
18574;SDS011;9417;16.484;102.872;2023-07-29T10:23:53;9.85;;;5.85;;
18574;SDS011;9417;16.484;102.872;2023-07-29T10:26:06;5.95;;;3.72;;
18574;SDS011;9417;16.484;102.872;2023-07-29T10:28:15;7.93;;;3.78;;
18574;SDS011;9417;16.484;102.872;2023-07-29T10:30:26;7.22;;;4.18;;
18574;SDS011;9417;16.484;102.872;2023-07-29T10:32:36;10.98;;;4.45;;
18574;SDS011;9417;16.484;102.872;2023-07-29T10:34:44;8.85;;;4.57;;
18574;SDS011;9417;16.484;102.872;2023-07-29T10:36:52;8.45;;;4.60;;
18574;SDS011;9417;16.484;102.872;2023-07-29T10:39:02;6.55;;;4.65;;
18574;SDS011;9417;16.484;102.872;2023-07-29T10:41:10;9.93;;;5.40;;
18574;SDS011;9417;16.484;102.872;2023-07-29T10:43:18;8.20;;;5.00;;
18574;SDS011;9417;16.484;102.872;2023-07-29T10:45:36;9.05;;;4.45;;
18574;SDS011;9417;16.484;102.872;2023-07-29T10:47:43;9.52;;;4.97;;
18574;SDS011;9417;16.484;102.872;2023-07-29T10:49:52;7.78;;;4.65;;
18574;SDS011;9417;16.484;102.872;2023-07-29T10:52:00;8.15;;;4.80;;
18574;SDS011;9417;16.484;102.872;2023-07-29T10:54:12;17.45;;;11.02;;
18574;SDS011;9417;16.484;102.872;2023-07-29T10:56:30;38.35;;;28.45;;
18574;SDS011;9417;16.484;102.872;2023-07-29T10:58:43;43.92;;;30.23;;
18574;SDS011;9417;16.484;102.872;2023-07-29T11:00:50;120.40;;;78.72;;
18574;SDS011;9417;16.484;102.872;2023-07-29T11:02:59;150.25;;;90.30;;
18574;SDS011;9417;16.484;102.872;2023-07-29T11:05:06;152.85;;;86.63;;
18574;SDS011;9417;16.484;102.872;2023-07-29T11:07:21;117.00;;;58.55;;
18574;SDS011;9417;16.484;102.872;2023-07-29T11:09:45;74.40;;;38.58;;
18574;SDS011;9417;16.484;102.872;2023-07-29T11:12:04;28.55;;;15.82;;
18574;SDS011;9417;16.484;102.872;2023-07-29T11:14:32;14.27;;;7.88;;
18574;SDS011;9417;16.484;102.872;2023-07-29T11:16:41;13.38;;;5.95;;
18574;SDS011;9417;16.484;102.872;2023-07-29T11:18:49;9.75;;;5.80;;
18574;SDS011;9417;16.484;102.872;2023-07-29T11:20:57;30.38;;;14.80;;
18574;SDS011;9417;16.484;102.872;2023-07-29T11:23:05;36.25;;;18.98;;
18574;SDS011;9417;16.484;102.872;2023-07-29T11:25:14;31.60;;;16.25;;
18574;SDS011;9417;16.484;102.872;2023-07-29T11:27:22;30.67;;;14.63;;
18574;SDS011;9417;16.484;102.872;2023-07-29T11:29:30;30.35;;;14.70;;
18574;SDS011;9417;16.484;102.872;2023-07-29T11:31:40;25.58;;;13.40;;
18574;SDS011;9417;16.484;102.872;2023-07-29T11:33:47;27.10;;;11.23;;
18574;SDS011;9417;16.484;102.872;2023-07-29T11:35:57;22.42;;;12.05;;
18574;SDS011;9417;16.484;102.872;2023-07-29T11:38:04;23.15;;;12.32;;
18574;SDS011;9417;16.484;102.872;2023-07-29T11:40:15;21.45;;;11.70;;
18574;SDS011;9417;16.484;102.872;2023-07-29T11:42:23;21.95;;;10.70;;
18574;SDS011;9417;16.484;102.872;2023-07-29T11:44:30;24.05;;;12.07;;
18574;SDS011;9417;16.484;102.872;2023-07-29T11:46:37;22.23;;;11.65;;
18574;SDS011;9417;16.484;102.872;2023-07-29T11:48:46;13.90;;;7.70;;
18574;SDS011;9417;16.484;102.872;2023-07-29T11:50:54;10.07;;;6.07;;
18574;SDS011;9417;16.484;102.872;2023-07-29T11:53:02;16.20;;;8.18;;
18574;SDS011;9417;16.484;102.872;2023-07-29T11:55:11;23.42;;;12.18;;
18574;SDS011;9417;16.484;102.872;2023-07-29T11:57:22;17.33;;;10.40;;
18574;SDS011;9417;16.484;102.872;2023-07-29T11:59:30;14.68;;;8.20;;
18574;SDS011;9417;16.484;102.872;2023-07-29T12:01:40;15.05;;;8.63;;
18574;SDS011;9417;16.484;102.872;2023-07-29T12:03:47;15.82;;;9.38;;
18574;SDS011;9417;16.484;102.872;2023-07-29T12:05:55;15.35;;;8.32;;
18574;SDS011;9417;16.484;102.872;2023-07-29T12:08:03;14.43;;;8.73;;
18574;SDS011;9417;16.484;102.872;2023-07-29T12:10:11;14.32;;;8.15;;
18574;SDS011;9417;16.484;102.872;2023-07-29T12:12:21;15.88;;;7.82;;
18574;SDS011;9417;16.484;102.872;2023-07-29T12:14:29;13.10;;;7.53;;
18574;SDS011;9417;16.484;102.872;2023-07-29T12:16:40;9.98;;;6.22;;
18574;SDS011;9417;16.484;102.872;2023-07-29T12:18:49;9.98;;;5.70;;
18574;SDS011;9417;16.484;102.872;2023-07-29T12:20:58;11.15;;;6.68;;
18574;SDS011;9417;16.484;102.872;2023-07-29T12:23:06;14.23;;;6.78;;
18574;SDS011;9417;16.484;102.872;2023-07-29T12:25:15;11.60;;;6.20;;
18574;SDS011;9417;16.484;102.872;2023-07-29T12:27:22;10.00;;;6.15;;
18574;SDS011;9417;16.484;102.872;2023-07-29T12:29:30;9.25;;;6.55;;
18574;SDS011;9417;16.484;102.872;2023-07-29T12:31:37;11.30;;;7.05;;
18574;SDS011;9417;16.484;102.872;2023-07-29T12:33:45;8.48;;;5.90;;
18574;SDS011;9417;16.484;102.872;2023-07-29T12:35:52;10.75;;;5.97;;
18574;SDS011;9417;16.484;102.872;2023-07-29T12:38:00;10.25;;;6.35;;
18574;SDS011;9417;16.484;102.872;2023-07-29T12:40:07;12.70;;;6.13;;